createdAt,value
2018-08-17T00:00:06.777Z,24.70
2018-08-17T00:02:34.933Z,24.70
2018-08-17T00:05:03.128Z,24.70
2018-08-17T00:07:31.272Z,24.60
2018-08-17T00:09:59.523Z,24.50
2018-08-17T00:12:27.643Z,24.40
2018-08-17T00:14:55.751Z,24.40
2018-08-17T00:17:23.882Z,24.40
2018-08-17T00:19:51.999Z,24.40
2018-08-17T00:22:20.199Z,24.40
2018-08-17T00:24:48.348Z,24.30
2018-08-17T00:27:16.492Z,24.30
2018-08-17T00:29:44.664Z,24.30
2018-08-17T00:32:19.836Z,24.30
2018-08-17T00:34:48.114Z,24.30
2018-08-17T00:37:16.395Z,24.20
2018-08-17T00:39:44.527Z,24.20
2018-08-17T00:42:12.716Z,24.20
2018-08-17T00:44:40.848Z,24.20
2018-08-17T00:47:08.995Z,24.20
2018-08-17T00:49:37.246Z,24.20
2018-08-17T00:52:05.407Z,24.20
2018-08-17T00:54:33.558Z,24.20
2018-08-17T00:57:01.707Z,24.30
2018-08-17T00:59:29.901Z,24.30
2018-08-17T01:01:58.044Z,24.20
2018-08-17T01:04:26.178Z,24.30
2018-08-17T01:06:55.361Z,24.40
2018-08-17T01:09:23.505Z,24.40
2018-08-17T01:11:51.666Z,24.50
2018-08-17T01:14:19.963Z,24.50
2018-08-17T01:16:48.145Z,24.50
2018-08-17T01:19:16.281Z,24.50
2018-08-17T01:21:44.597Z,24.50
2018-08-17T01:24:12.707Z,24.40
2018-08-17T01:26:40.827Z,24.50
2018-08-17T01:29:09.060Z,24.50
2018-08-17T01:31:37.977Z,24.50
2018-08-17T01:34:06.148Z,24.50
2018-08-17T01:36:34.281Z,24.50
2018-08-17T01:39:02.406Z,24.50
2018-08-17T01:41:30.547Z,24.50
2018-08-17T01:43:58.719Z,24.50
2018-08-17T01:46:26.856Z,24.50
2018-08-17T01:48:54.999Z,24.50
2018-08-17T01:51:23.172Z,24.50
2018-08-17T01:53:51.308Z,24.60
2018-08-17T01:56:19.456Z,24.60
2018-08-17T01:58:48.175Z,24.60
2018-08-17T02:01:16.341Z,24.70
2018-08-17T02:03:44.472Z,24.70
2018-08-17T02:06:12.625Z,24.60
2018-08-17T02:08:40.831Z,24.60
2018-08-17T02:11:08.993Z,24.60
2018-08-17T02:13:37.120Z,24.70
2018-08-17T02:16:05.295Z,24.70
2018-08-17T02:18:33.446Z,24.70
2018-08-17T02:21:01.692Z,24.70
2018-08-17T02:23:29.835Z,24.80
2018-08-17T02:25:57.967Z,24.80
2018-08-17T02:28:26.111Z,24.80
2018-08-17T02:30:54.253Z,24.80
2018-08-17T02:33:22.423Z,24.80
2018-08-17T02:35:50.600Z,24.70
2018-08-17T02:38:18.711Z,24.50
2018-08-17T02:40:46.858Z,24.60
2018-08-17T02:43:15.039Z,24.60
2018-08-17T02:45:43.211Z,24.60
2018-08-17T02:48:11.328Z,24.70
2018-08-17T02:50:39.448Z,24.70
2018-08-17T02:53:07.965Z,24.80
2018-08-17T02:55:36.140Z,24.80
2018-08-17T02:58:05.257Z,24.80
2018-08-17T03:00:33.744Z,24.70
2018-08-17T03:03:01.961Z,24.70
2018-08-17T03:05:30.132Z,24.70
2018-08-17T03:07:58.279Z,24.70
2018-08-17T03:10:26.390Z,24.70
2018-08-17T03:12:54.517Z,24.70
2018-08-17T03:15:22.729Z,24.70
2018-08-17T03:17:51.423Z,24.60
2018-08-17T03:20:19.594Z,24.60
2018-08-17T03:22:47.823Z,24.40
2018-08-17T03:25:15.991Z,24.30
2018-08-17T03:27:44.144Z,24.00
2018-08-17T03:30:12.338Z,23.90
2018-08-17T03:32:40.448Z,24.00
2018-08-17T03:35:08.579Z,23.80
2018-08-17T03:37:36.775Z,23.80
2018-08-17T03:40:05.316Z,24.00
2018-08-17T03:42:33.460Z,24.10
2018-08-17T03:45:01.625Z,24.10
2018-08-17T03:47:29.781Z,23.80
2018-08-17T03:49:57.930Z,23.80
2018-08-17T03:52:26.063Z,23.80
2018-08-17T03:54:54.219Z,23.70
2018-08-17T03:57:22.376Z,23.80
2018-08-17T03:59:50.712Z,23.90
2018-08-17T04:02:18.837Z,23.90
2018-08-17T04:04:46.952Z,23.90
2018-08-17T04:07:15.159Z,24.00
2018-08-17T04:09:43.363Z,23.90
2018-08-17T04:12:11.511Z,24.00
2018-08-17T04:14:39.671Z,24.00
2018-08-17T04:17:07.773Z,24.00
2018-08-17T04:19:35.924Z,23.90
2018-08-17T04:22:04.129Z,23.90
2018-08-17T04:24:32.282Z,24.00
2018-08-17T04:27:00.438Z,23.90
2018-08-17T04:29:28.599Z,23.90
2018-08-17T04:31:56.724Z,23.90
2018-08-17T04:34:24.850Z,24.10
2018-08-17T04:36:53.014Z,24.10
2018-08-17T04:39:21.152Z,24.10
2018-08-17T04:41:49.294Z,24.20
2018-08-17T04:44:17.566Z,24.20
2018-08-17T04:46:45.728Z,24.20
2018-08-17T04:49:13.961Z,24.30
2018-08-17T04:51:42.092Z,24.20
2018-08-17T04:54:10.819Z,24.30
2018-08-17T04:56:39.041Z,24.30
2018-08-17T04:59:07.276Z,24.40
2018-08-17T05:01:35.412Z,24.40
2018-08-17T05:04:03.563Z,24.50
2018-08-17T05:06:31.679Z,24.40
2018-08-17T05:08:59.841Z,24.40
2018-08-17T05:11:27.959Z,24.50
2018-08-17T05:13:56.337Z,24.40
2018-08-17T05:16:24.487Z,24.50
2018-08-17T05:18:52.640Z,24.50
2018-08-17T05:21:20.892Z,24.50
2018-08-17T05:23:49.041Z,24.50
2018-08-17T05:26:17.261Z,24.40
2018-08-17T05:28:45.386Z,24.30
2018-08-17T05:31:13.511Z,24.40
2018-08-17T05:33:41.678Z,24.30
2018-08-17T05:36:09.802Z,24.30
2018-08-17T05:38:37.904Z,24.50
2018-08-17T05:41:06.249Z,24.40
2018-08-17T05:43:34.392Z,24.40
2018-08-17T05:46:02.615Z,24.50
2018-08-17T05:48:31.052Z,24.70
2018-08-17T05:50:59.203Z,24.80
2018-08-17T05:53:27.350Z,25.00
2018-08-17T05:55:55.504Z,25.00
2018-08-17T05:58:23.651Z,25.00
2018-08-17T06:00:52.223Z,24.90
2018-08-17T06:03:20.363Z,24.90
2018-08-17T06:05:48.532Z,24.80
2018-08-17T06:08:16.691Z,24.80
2018-08-17T06:10:45.397Z,24.80
2018-08-17T06:13:13.669Z,24.90
2018-08-17T06:15:41.787Z,24.90
2018-08-17T06:18:10.829Z,24.90
2018-08-17T06:20:39.233Z,24.90
2018-08-17T06:23:07.345Z,24.90
2018-08-17T06:25:35.759Z,24.80
2018-08-17T06:28:03.897Z,24.80
2018-08-17T06:30:32.251Z,24.80
2018-08-17T06:33:00.656Z,24.80
2018-08-17T06:35:35.676Z,24.90
2018-08-17T06:38:03.830Z,24.90
2018-08-17T06:40:32.047Z,24.90
2018-08-17T06:43:00.187Z,24.90
2018-08-17T06:45:28.367Z,24.50
2018-08-17T06:47:56.485Z,24.50
2018-08-17T06:50:24.619Z,24.60
2018-08-17T06:52:52.765Z,24.50
2018-08-17T06:55:22.418Z,24.40
2018-08-17T06:57:50.834Z,24.10
2018-08-17T07:00:19.681Z,23.40
2018-08-17T07:02:47.862Z,23.60
2018-08-17T07:05:16.056Z,23.90
2018-08-17T07:07:44.217Z,24.00
2018-08-17T07:10:13.435Z,24.10
2018-08-17T07:12:42.135Z,23.90
2018-08-17T07:15:10.415Z,23.90
2018-08-17T07:17:38.754Z,23.90
2018-08-17T07:20:08.300Z,23.80
2018-08-17T07:22:36.468Z,23.80
2018-08-17T07:25:05.004Z,23.60
2018-08-17T07:27:33.127Z,23.60
2018-08-17T07:30:01.392Z,23.70
2018-08-17T07:32:41.312Z,23.70
2018-08-17T07:35:11.135Z,23.60
2018-08-17T07:40:34.256Z,23.60
2018-08-17T07:43:02.334Z,23.60
2018-08-17T07:45:30.439Z,23.70
2018-08-17T07:47:58.661Z,23.80
2018-08-17T07:50:26.687Z,23.90
2018-08-17T07:52:54.798Z,23.90
2018-08-17T07:55:22.916Z,23.90
2018-08-17T07:57:51.049Z,24.10
2018-08-17T08:00:19.203Z,24.10
2018-08-17T08:02:47.416Z,24.10
2018-08-17T08:05:15.521Z,24.20
2018-08-17T08:07:43.686Z,24.10
2018-08-17T08:10:12.155Z,24.30
2018-08-17T08:12:40.527Z,24.20
2018-08-17T08:15:08.888Z,24.50
2018-08-17T08:17:37.493Z,24.80
2018-08-17T08:20:17.215Z,25.20
2018-08-17T08:22:45.328Z,25.40
2018-08-17T08:25:13.528Z,25.40
2018-08-17T08:27:41.764Z,25.30
2018-08-17T08:30:09.930Z,25.20
2018-08-17T08:32:38.044Z,25.40
2018-08-17T08:35:06.993Z,25.60
2018-08-17T08:37:35.102Z,25.70
2018-08-17T08:40:03.230Z,25.80
2018-08-17T08:42:31.412Z,26.10
2018-08-17T08:44:59.523Z,26.70
2018-08-17T08:47:27.658Z,27.00
2018-08-17T08:49:55.819Z,27.30
2018-08-17T08:52:23.936Z,27.50
2018-08-17T08:54:52.028Z,28.00
2018-08-17T08:57:20.233Z,28.70
2018-08-17T08:59:48.640Z,29.30
2018-08-17T09:02:16.772Z,29.30
2018-08-17T09:04:44.917Z,29.30
2018-08-17T09:07:13.025Z,29.30
2018-08-17T09:09:41.142Z,29.50
2018-08-17T09:12:09.303Z,29.50
2018-08-17T09:14:37.432Z,29.70
2018-08-17T09:17:05.909Z,30.40
2018-08-17T09:19:34.612Z,30.70
2018-08-17T09:22:02.800Z,31.30
2018-08-17T09:24:30.929Z,32.10
2018-08-17T09:26:59.027Z,32.70
2018-08-17T09:29:27.168Z,33.20
2018-08-17T09:31:55.303Z,33.20
2018-08-17T09:34:24.048Z,32.50
2018-08-17T09:36:52.263Z,31.80
2018-08-17T09:39:20.475Z,31.00
2018-08-17T09:41:48.742Z,29.30
2018-08-17T09:44:16.820Z,28.20
2018-08-17T09:46:44.937Z,28.10
2018-08-17T09:49:13.144Z,28.10
2018-08-17T09:51:41.331Z,28.30
2018-08-17T09:54:09.465Z,28.80
2018-08-17T09:56:37.971Z,29.20
2018-08-17T09:59:06.373Z,29.60
2018-08-17T10:01:40.099Z,30.40
2018-08-17T10:04:13.749Z,30.40
2018-08-17T10:06:47.243Z,30.70
2018-08-17T10:09:20.764Z,31.20
2018-08-17T10:11:50.676Z,31.30
2018-08-17T10:14:19.717Z,31.40
2018-08-17T10:16:48.041Z,30.60
2018-08-17T10:19:16.235Z,30.20
2018-08-17T10:21:49.972Z,29.70
2018-08-17T10:24:18.298Z,29.40
2018-08-17T10:26:47.484Z,29.10
2018-08-17T10:29:15.628Z,28.80
2018-08-17T10:31:43.959Z,28.90
2018-08-17T10:34:12.472Z,29.00
2018-08-17T10:36:40.727Z,29.00
2018-08-17T10:39:09.638Z,29.20
2018-08-17T10:41:38.088Z,28.90
2018-08-17T10:44:06.220Z,28.80
2018-08-17T10:46:34.675Z,28.50
2018-08-17T10:49:02.805Z,28.40
2018-08-17T10:51:30.893Z,28.30
2018-08-17T10:53:59.081Z,28.00
2018-08-17T10:56:27.236Z,27.70
2018-08-17T10:58:55.340Z,27.20
2018-08-17T11:01:23.657Z,27.40
2018-08-17T11:03:51.844Z,27.50
2018-08-17T11:06:19.964Z,27.60
2018-08-17T11:08:48.088Z,27.60
2018-08-17T11:11:16.243Z,27.00
2018-08-17T11:13:44.416Z,27.70
2018-08-17T11:16:12.640Z,28.90
2018-08-17T11:18:40.772Z,29.60
2018-08-17T11:21:08.882Z,30.00
2018-08-17T11:23:37.086Z,29.70
2018-08-17T11:26:06.151Z,29.80
2018-08-17T11:28:34.327Z,29.90
2018-08-17T11:31:02.625Z,30.00
2018-08-17T11:33:30.892Z,30.10
2018-08-17T11:35:59.080Z,29.70
2018-08-17T11:38:27.459Z,29.70
2018-08-17T11:40:55.658Z,29.70
2018-08-17T11:43:23.823Z,29.60
2018-08-17T11:45:51.981Z,29.00
2018-08-17T11:48:27.258Z,28.60
2018-08-17T11:50:56.164Z,28.40
2018-08-17T11:53:24.282Z,28.00
2018-08-17T11:55:58.825Z,28.40
2018-08-17T11:58:27.457Z,28.70
2018-08-17T12:00:55.777Z,28.90
2018-08-17T12:03:24.826Z,29.00
2018-08-17T12:05:53.219Z,28.60
2018-08-17T12:08:22.399Z,28.40
2018-08-17T12:10:57.915Z,28.60
2018-08-17T12:13:26.499Z,28.70
2018-08-17T12:15:56.218Z,28.70
2018-08-17T12:18:24.441Z,28.40
2018-08-17T12:20:54.015Z,28.40
2018-08-17T12:23:22.274Z,28.30
2018-08-17T12:25:58.195Z,28.50
2018-08-17T12:28:28.566Z,29.20
2018-08-17T12:30:57.115Z,29.70
2018-08-17T12:33:25.295Z,29.70
2018-08-17T12:35:53.447Z,30.00
2018-08-17T12:38:21.590Z,30.10
2018-08-17T12:40:52.969Z,29.50
2018-08-17T12:43:25.276Z,29.40
2018-08-17T12:45:53.535Z,29.20
2018-08-17T12:48:21.702Z,29.20
2018-08-17T12:50:49.852Z,29.00
2018-08-17T12:53:17.951Z,28.70
2018-08-17T12:55:46.199Z,28.10
2018-08-17T12:58:14.948Z,27.50
2018-08-17T13:00:43.151Z,27.20
2018-08-17T13:03:11.272Z,27.60
2018-08-17T13:05:39.421Z,27.20
2018-08-17T13:08:08.260Z,27.50
2018-08-17T13:10:36.433Z,27.90
2018-08-17T13:13:08.343Z,28.40
2018-08-17T13:15:37.651Z,28.90
2018-08-17T13:18:14.653Z,29.20
2018-08-17T13:20:42.846Z,29.10
2018-08-17T13:23:11.137Z,29.10
2018-08-17T13:25:39.683Z,29.20
2018-08-17T13:28:07.869Z,29.20
2018-08-17T13:30:35.983Z,29.20
2018-08-17T13:33:04.125Z,29.00
2018-08-17T13:35:32.241Z,29.30
2018-08-17T13:38:00.359Z,30.10
2018-08-17T13:40:28.535Z,31.10
2018-08-17T13:42:56.660Z,32.20
2018-08-17T13:45:24.876Z,32.70
2018-08-17T13:47:53.205Z,33.10
2018-08-17T13:50:21.340Z,33.20
2018-08-17T13:52:49.493Z,33.00
2018-08-17T13:55:17.651Z,32.80
2018-08-17T13:57:45.764Z,31.70
2018-08-17T14:00:13.924Z,32.80
2018-08-17T14:02:42.035Z,33.20
2018-08-17T14:05:11.006Z,34.40
2018-08-17T14:07:39.141Z,35.90
2018-08-17T14:10:08.614Z,35.90
2018-08-17T14:12:37.464Z,35.90
2018-08-17T14:15:07.279Z,35.30
2018-08-17T14:17:35.756Z,34.50
2018-08-17T14:20:04.895Z,32.90
2018-08-17T14:22:33.048Z,33.50
2018-08-17T14:25:01.218Z,34.10
2018-08-17T14:27:29.333Z,34.20
2018-08-17T14:29:57.445Z,35.20
2018-08-17T14:32:25.605Z,36.30
2018-08-17T14:34:53.738Z,36.40
2018-08-17T14:37:21.879Z,34.60
2018-08-17T14:39:50.571Z,33.40
2018-08-17T14:42:18.744Z,33.50
2018-08-17T14:47:15.372Z,34.60
2018-08-17T14:49:43.496Z,34.00
2018-08-17T14:52:11.637Z,34.30
2018-08-17T14:54:39.760Z,34.60
2018-08-17T14:57:07.889Z,34.70
2018-08-17T14:59:36.023Z,34.70
2018-08-17T15:02:04.219Z,34.90
2018-08-17T15:04:32.360Z,34.00
2018-08-17T15:07:00.514Z,32.20
2018-08-17T15:09:28.627Z,32.80
2018-08-17T15:11:56.845Z,33.10
2018-08-17T15:14:24.966Z,33.40
2018-08-17T15:16:53.979Z,31.80
2018-08-17T15:19:22.113Z,30.80
2018-08-17T15:21:50.274Z,31.10
2018-08-17T15:24:18.429Z,31.40
2018-08-17T15:26:47.420Z,31.20
2018-08-17T15:29:15.547Z,31.20
2018-08-17T15:31:43.684Z,31.70
2018-08-17T15:34:12.009Z,31.80
2018-08-17T15:36:40.119Z,32.00
2018-08-17T15:39:08.383Z,32.00
2018-08-17T15:44:13.185Z,30.40
2018-08-17T15:46:41.346Z,29.90
2018-08-17T15:49:13.677Z,30.30
2018-08-17T15:51:41.871Z,30.10
2018-08-17T15:54:10.126Z,30.10
2018-08-17T15:56:38.348Z,30.10
2018-08-17T15:59:06.734Z,29.90
2018-08-17T16:01:34.979Z,29.90
2018-08-17T16:04:02.981Z,29.80
2018-08-17T16:06:31.153Z,29.80
2018-08-17T16:09:00.047Z,29.60
2018-08-17T16:11:28.179Z,29.70
2018-08-17T16:13:56.291Z,29.70
2018-08-17T16:16:24.503Z,29.70
2018-08-17T16:18:52.615Z,29.80
2018-08-17T16:21:20.772Z,30.00
2018-08-17T16:23:48.904Z,30.20
2018-08-17T16:26:16.991Z,30.10
2018-08-17T16:28:45.100Z,30.20
2018-08-17T16:31:13.271Z,30.20
2018-08-17T16:33:41.398Z,30.00
2018-08-17T16:36:09.529Z,29.80
2018-08-17T16:38:38.419Z,29.60
2018-08-17T16:41:07.088Z,29.50
2018-08-17T16:43:44.807Z,29.60
2018-08-17T16:46:13.355Z,29.70
2018-08-17T16:48:42.067Z,29.70
2018-08-17T16:51:10.456Z,29.70
2018-08-17T16:53:38.674Z,29.70
2018-08-17T16:56:06.824Z,29.70
2018-08-17T16:58:34.978Z,29.70
2018-08-17T17:01:03.116Z,29.70
2018-08-17T17:03:31.252Z,29.60
2018-08-17T17:06:01.623Z,29.60
2018-08-17T17:08:30.215Z,29.50
2018-08-17T17:10:58.806Z,29.50
2018-08-17T17:13:26.933Z,29.40
2018-08-17T17:15:55.071Z,29.40
2018-08-17T17:18:23.191Z,29.40
2018-08-17T17:20:51.465Z,29.40
2018-08-17T17:23:19.771Z,29.00
2018-08-17T17:25:48.062Z,28.90
2018-08-17T17:28:16.302Z,28.90
2018-08-17T17:30:55.868Z,28.80
2018-08-17T17:33:24.069Z,28.80
2018-08-17T17:35:52.213Z,28.70
2018-08-17T17:38:20.350Z,28.70
2018-08-17T17:40:48.531Z,28.60
2018-08-17T17:43:16.770Z,28.30
2018-08-17T17:45:44.942Z,28.30
2018-08-17T17:48:13.105Z,28.30
2018-08-17T17:50:41.274Z,28.20
2018-08-17T17:53:09.533Z,28.20
2018-08-17T17:55:43.159Z,28.10
2018-08-17T17:58:11.538Z,28.10
2018-08-17T18:00:39.716Z,28.00
2018-08-17T18:03:08.053Z,27.90
2018-08-17T18:05:36.207Z,27.80
2018-08-17T18:08:22.763Z,27.70
2018-08-17T18:10:50.877Z,27.60
2018-08-17T18:13:18.983Z,27.50
2018-08-17T18:15:47.109Z,27.50
2018-08-17T18:18:15.236Z,27.40
2018-08-17T18:20:43.384Z,27.40
2018-08-17T18:23:11.557Z,27.30
2018-08-17T18:25:39.705Z,27.20
2018-08-17T18:28:07.795Z,27.20
2018-08-17T18:30:35.931Z,27.00
2018-08-17T18:33:04.066Z,26.90
2018-08-17T18:35:32.206Z,26.70
2018-08-17T18:38:00.326Z,26.60
2018-08-17T18:40:28.523Z,26.60
2018-08-17T18:42:56.744Z,26.50
2018-08-17T18:45:24.968Z,26.40
2018-08-17T18:47:53.120Z,26.40
2018-08-17T18:50:21.255Z,26.20
2018-08-17T18:52:49.424Z,26.20
2018-08-17T18:55:17.565Z,26.10
2018-08-17T18:57:45.824Z,26.00
2018-08-17T19:00:14.367Z,26.00
2018-08-17T19:02:42.771Z,25.90
2018-08-17T19:05:13.274Z,25.80
2018-08-17T19:07:41.960Z,25.80
2018-08-17T19:10:10.568Z,25.70
2018-08-17T19:12:38.722Z,25.60
2018-08-17T19:15:10.432Z,25.60
2018-08-17T19:17:38.694Z,25.50
2018-08-17T19:20:10.379Z,25.40
2018-08-17T19:22:40.274Z,25.30
2018-08-17T19:25:09.633Z,25.20
2018-08-17T19:27:38.280Z,25.10
2018-08-17T19:30:18.923Z,25.00
2018-08-17T19:32:47.372Z,24.90
2018-08-17T19:35:15.604Z,24.90
2018-08-17T19:37:43.727Z,24.80
2018-08-17T19:40:11.855Z,24.80
2018-08-17T19:42:40.025Z,24.70
2018-08-17T19:45:08.131Z,24.30
2018-08-17T19:47:36.263Z,24.30
2018-08-17T19:50:04.471Z,24.30
2018-08-17T19:52:32.529Z,24.20
2018-08-17T19:55:00.681Z,24.00
2018-08-17T19:57:28.793Z,24.10
2018-08-17T19:59:56.924Z,24.20
2018-08-17T20:02:25.060Z,24.20
2018-08-17T20:04:53.164Z,24.20
2018-08-17T20:07:21.357Z,24.10
2018-08-17T20:09:49.463Z,24.20
2018-08-17T20:12:17.591Z,24.10
2018-08-17T20:14:45.726Z,24.20
2018-08-17T20:17:13.881Z,24.20
2018-08-17T20:19:46.940Z,23.70
2018-08-17T20:22:20.031Z,23.60
2018-08-17T20:24:48.320Z,23.70
2018-08-17T20:27:16.902Z,23.70
2018-08-17T20:29:45.159Z,23.80
2018-08-17T20:32:13.310Z,23.70
2018-08-17T20:34:47.162Z,23.60
2018-08-17T20:37:16.036Z,23.60
2018-08-17T20:39:45.172Z,23.50
2018-08-17T20:42:13.559Z,23.50
2018-08-17T20:44:41.674Z,23.50
2018-08-17T20:47:10.595Z,23.40
2018-08-17T20:49:38.737Z,23.40
2018-08-17T20:52:07.451Z,23.30
2018-08-17T20:54:35.682Z,23.20
2018-08-17T20:57:03.816Z,23.20
2018-08-17T20:59:31.977Z,23.20
2018-08-17T21:02:00.248Z,23.10
2018-08-17T21:04:28.434Z,23.10
2018-08-17T21:06:56.714Z,23.10
2018-08-17T21:09:24.848Z,23.10
2018-08-17T21:11:53.097Z,22.70
2018-08-17T21:14:21.304Z,22.80
2018-08-17T21:16:49.503Z,22.90
2018-08-17T21:19:22.164Z,22.80
2018-08-17T21:21:50.591Z,22.80
2018-08-17T21:24:18.779Z,22.80
2018-08-17T21:26:47.082Z,22.80
2018-08-17T21:29:15.617Z,22.70
2018-08-17T21:31:43.721Z,22.70
2018-08-17T21:34:12.892Z,22.70
2018-08-17T21:36:41.012Z,22.60
2018-08-17T21:39:11.031Z,22.60
2018-08-17T21:41:40.652Z,22.50
2018-08-17T21:44:11.208Z,22.50
2018-08-17T21:46:39.429Z,22.50
2018-08-17T21:49:07.567Z,22.50
2018-08-17T21:51:35.972Z,22.50
2018-08-17T21:54:05.275Z,22.50
2018-08-17T21:56:33.707Z,22.60
2018-08-17T21:59:01.856Z,22.60
2018-08-17T22:01:29.975Z,22.60
2018-08-17T22:03:58.140Z,22.60
2018-08-17T22:06:26.281Z,22.60
2018-08-17T22:08:54.452Z,22.50
2018-08-17T22:11:32.753Z,22.50
2018-08-17T22:14:00.864Z,22.50
2018-08-17T22:16:29.039Z,22.40
2018-08-17T22:18:57.468Z,22.40
2018-08-17T22:21:25.911Z,22.40
2018-08-17T22:23:54.910Z,22.50
2018-08-17T22:26:23.704Z,22.50
2018-08-17T22:28:51.833Z,22.50
2018-08-17T22:31:51.085Z,22.40
2018-08-17T22:34:19.277Z,22.40
2018-08-17T22:36:47.464Z,22.40
2018-08-17T22:39:15.637Z,22.40
2018-08-17T22:41:43.853Z,22.60
2018-08-17T22:44:17.395Z,22.70
2018-08-17T22:47:12.144Z,22.80
2018-08-17T22:49:40.307Z,22.70
2018-08-17T22:52:08.459Z,22.60
2018-08-17T22:54:40.876Z,22.70
2018-08-17T22:57:09.936Z,22.70
2018-08-17T22:59:38.091Z,22.70
2018-08-17T23:02:06.579Z,22.50
2018-08-17T23:04:34.753Z,22.40
2018-08-17T23:07:02.907Z,22.40
2018-08-17T23:09:31.164Z,22.40
2018-08-17T23:11:59.318Z,22.40
2018-08-17T23:14:27.462Z,22.40
2018-08-17T23:16:55.610Z,22.40
2018-08-17T23:19:23.815Z,22.40
2018-08-17T23:21:51.968Z,22.40
2018-08-17T23:24:21.144Z,22.40
2018-08-17T23:26:49.272Z,22.30
2018-08-17T23:29:17.395Z,22.20
2018-08-17T23:31:45.621Z,22.20
2018-08-17T23:34:14.243Z,22.20
2018-08-17T23:36:43.156Z,22.20
2018-08-17T23:39:11.542Z,22.10
2018-08-17T23:41:39.661Z,22.10
2018-08-17T23:44:07.780Z,22.00
2018-08-17T23:46:35.915Z,21.70
2018-08-17T23:49:04.147Z,21.40
2018-08-17T23:51:32.284Z,21.60
2018-08-17T23:54:00.508Z,21.70
2018-08-17T23:56:28.659Z,21.60
2018-08-17T23:58:56.823Z,21.50
